Flight Track Log - Related Links

Times and Time Zones

All times are in EDT time to prevent confusion due to time zone crossing. See the AAR8737 flight status page for this flight to view local times or setup timezone preferences in your user account.


Time Position Orientation Groundspeed Altitude Reporting Facility
EDT Latitude Longitude Course Direction KTS MPH feet Rate Location/Type
Wed 04:34:35 AM 37.5818 126.6476 179° South 292 336 7,700  Level FlightAware ADS-B
Wed 04:34:40 AM 37.5759 126.6481 174° South 293 337 8,100 4,500 Climbing FlightAware ADS-B
Wed 04:34:47 AM 37.5656 126.6502 169° South 293 337 8,600 4,200 Climbing FlightAware ADS-B
Wed 04:35:00 AM 37.5476 126.6551 167° South 295 339 9,500 3,306 Climbing FlightAware ADS-B
Wed 04:35:36 AM 37.4963 126.6674 170° South 320 368 11,300 2,400 Climbing FlightAware ADS-B
Wed 04:36:00 AM 37.4596 126.6749 170° South 346 398 11,900 2,189 Climbing FlightAware ADS-B
Wed 04:36:50 AM 37.3727 126.6927 170° South 380 437 14,000 2,667 Climbing FlightAware ADS-B
Wed 04:37:21 AM 37.3185 126.7039 170° South 390 449 15,500 2,656 Climbing FlightAware ADS-B
Wed 04:37:51 AM 37.2645 126.7150 170° South 399 459 16,700 2,400 Climbing FlightAware ADS-B
Wed 04:38:16 AM 37.2192 126.7241 170° South 406 467 17,700 2,400 Climbing FlightAware ADS-B
Wed 04:38:46 AM 37.1714 126.7340 170° South 408 470 18,900 2,204 Climbing FlightAware ADS-B
Wed 04:39:54 AM 37.0364 126.7615 170° South 408 470 21,300 1,939 Climbing FlightAware ADS-B
Wed 04:40:25 AM 36.9800 126.7728 170° South 434 499 22,100 1,548 Climbing FlightAware ADS-B
Wed 04:43:00 AM 36.7711 126.8572 162° South  Level Estimated
Wed 04:44:00 AM 36.6902 126.8897 162° South  Level Estimated
Wed 04:45:00 AM 36.6093 126.9222 162° South  Level Estimated
Wed 04:46:00 AM 36.5284 126.9546 162° South  Level Estimated
Wed 04:47:00 AM 36.4475 126.9870 162° South  Level Estimated
Wed 04:48:00 AM 36.3666 127.0192 162° South  Level Estimated
Wed 04:49:00 AM 36.2856 127.0515 162° South  Level Estimated
Wed 04:50:00 AM 36.2047 127.0836 162° South  Level Estimated
Wed 04:51:00 AM 36.1237 127.1157 162° South  Level Estimated
Wed 04:52:00 AM 36.0428 127.1477 162° South  Level Estimated
Wed 04:53:00 AM 35.9618 127.1796 162° South  Level Estimated
Wed 04:54:00 AM 35.8808 127.2115 162° South  Level Estimated
Wed 04:55:00 AM 35.7998 127.2433 162° South  Level Estimated
Wed 04:56:00 AM 35.7188 127.2751 162° South  Level Estimated
Wed 04:57:00 AM 35.6378 127.3067 162° South  Level Estimated
Wed 04:58:00 AM 35.5568 127.3384 162° South  Level Estimated
Wed 04:59:00 AM 35.4758 127.3699 162° South  Level Estimated
Wed 05:00:00 AM 35.3948 127.4014 162° South  Level Estimated
Wed 05:01:00 AM 35.3137 127.4328 162° South  Level Estimated
Wed 05:02:00 AM 35.2327 127.4642 162° South  Level Estimated
Wed 05:03:00 AM 35.1516 127.4955 162° South  Level Estimated
Wed 05:04:00 AM 35.0706 127.5267 162° South  Level Estimated
Wed 05:05:00 AM 34.9895 127.5579 163° South  Level Estimated
Wed 05:06:00 AM 34.9084 127.5890 163° South  Level Estimated
Wed 05:07:00 AM 34.8398 127.6153 163° South  Level Estimated
Wed 05:08:00 AM 34.8398 127.6153 North  Level Estimated
Wed 05:09:00 AM 34.8398 127.6153 North  Level Estimated
Wed 05:10:00 AM 34.8398 127.6153 North  Level Estimated
Wed 05:11:00 AM 34.8398 127.6153 North  Level Estimated
Wed 05:12:00 AM 34.8398 127.6153 North  Level Estimated

Login

Don't have an account? Register now (free) for customized features, flight alerts, and more!